Gulf-ii — TCA2452 — position and weather

sailwx.info

Track history (hours):
 
Tides and Currents Weather Stations Pressure Air Temp Water Temp Dewpoint Dewpoint Depression Visibility Wind Speed Wind Dir Waves Ship Positions

Gulf-ii

Last reported at 2016-Dec-03 07:29 UTC. Time now 2016-Dec-08 09:57 UTC.
Position N 40°51' E 029°17'.

Length 24 m; draft 3.8 m.

Type: Tug. MMSI: 271002438.

Date/timePositionNaut miles runAvg speedWind from/ knotsBaromVisibWave heightAir tempDewpointWater temp
2016-Dec-03 07:29N 40°51' E 029°17'0 0.0
2016-Dec-02 18:17N 40°51' E 029°17'0 0.0
2016-Dec-02 17:29N 40°51' E 029°17'0 0.0
2016-Dec-02 16:23N 40°51' E 029°17'0 0.0
2016-Dec-02 15:23N 40°51' E 029°17'0 0.0
2016-Dec-02 14:29N 40°51' E 029°17'0 0.0
2016-Dec-02 13:29N 40°51' E 029°17'0 0.0
2016-Dec-02 12:29N 40°51' E 029°17'0 0.0
2016-Dec-02 10:23N 40°51' E 029°17'0 0.0
2016-Dec-02 09:23N 40°51' E 029°17'0 0.0
2016-Dec-02 08:29N 40°51' E 029°17'0 0.0
2016-Dec-02 07:29N 40°51' E 029°17'0 0.0
2016-Dec-02 06:29N 40°51' E 029°17'0 0.0
2016-Dec-02 05:29N 40°51' E 029°17'0 0.0
2016-Dec-02 04:29N 40°51' E 029°17'0 0.0
2016-Dec-02 03:29N 40°51' E 029°17'0 0.0
2016-Dec-02 02:29N 40°51' E 029°17'0 0.0
2016-Dec-02 01:29N 40°51' E 029°17'0 0.0
2016-Dec-02 00:29N 40°51' E 029°17'0 0.0
2016-Dec-01 23:29N 40°51' E 029°17'0 0.0
2016-Dec-01 22:29N 40°51' E 029°17'0 0.0
2016-Dec-01 21:29N 40°51' E 029°17'0 0.0
2016-Dec-01 20:23N 40°51' E 029°17'0 0.0
2016-Dec-01 19:11N 40°51' E 029°17'0 0.0
2016-Dec-01 18:29N 40°51' E 029°17'0 0.0
2016-Dec-01 17:17N 40°51' E 029°17'0 0.0
2016-Dec-01 16:23N 40°51' E 029°17'0 0.0
2016-Dec-01 15:29N 40°51' E 029°17'0 0.3
2016-Dec-01 14:33N 40°51' E 029°17'5 4.8
2016-Dec-01 13:33N 40°46' E 029°16'8 6.6
2016-Dec-01 12:16N 40°44' E 029°27'2 3.2
2016-Dec-01 11:33N 40°44' E 029°30'1 1.1
2016-Dec-01 10:33N 40°45' E 029°31'1 0.0
2016-Nov-30 05:30N 40°45' E 029°29'6 6.8
2016-Nov-30 04:33N 40°45' E 029°20'6 6.2
2016-Nov-30 03:33N 40°49' E 029°15'3 2.6
2016-Nov-30 02:30N 40°51' E 029°17'0 0.0
2016-Nov-30 01:18N 40°51' E 029°17'0 0.0
2016-Nov-30 00:30N 40°51' E 029°17'0 0.0
2016-Nov-29 23:24N 40°51' E 029°17'0 0.0
2016-Nov-29 22:24N 40°51' E 029°17'0 0.0
2016-Nov-29 21:30N 40°51' E 029°17'0 0.0
2016-Nov-29 20:30N 40°51' E 029°17'0 0.0
2016-Nov-29 19:30N 40°51' E 029°17'0 0.0
2016-Nov-29 18:30N 40°51' E 029°17'0 0.0
2016-Nov-29 17:30N 40°51' E 029°17'0 0.0
2016-Nov-29 16:30N 40°51' E 029°17'0 0.0
2016-Nov-29 15:30N 40°51' E 029°17'0 0.0
2016-Nov-29 14:30N 40°51' E 029°17'0 0.0
2016-Nov-29 13:24N 40°51' E 029°17'0 0.0
2016-Nov-29 12:33N 40°51' E 029°17'0 0.1
2016-Nov-29 11:29N 40°51' E 029°17'0 0.1
2016-Nov-29 10:28N 40°51' E 029°17'0 0.0
2016-Nov-29 09:22N 40°51' E 029°17'0 0.0
2016-Nov-29 08:16N 40°51' E 029°17'0 0.0
2016-Nov-29 07:28N 40°51' E 029°17'0 0.0
2016-Nov-29 06:22N 40°51' E 029°17'0 0.0
2016-Nov-29 05:28N 40°51' E 029°17'0 0.0
2016-Nov-29 04:28N 40°51' E 029°17'0 0.0
2016-Nov-29 03:28N 40°51' E 029°17'0 0.0
2016-Nov-29 02:28N 40°51' E 029°17'0 0.0
2016-Nov-29 01:28N 40°51' E 029°17'0 0.0
2016-Nov-29 00:22N 40°51' E 029°17'0 0.0
2016-Nov-28 23:28N 40°51' E 029°17'0 0.0
2016-Nov-28 22:28N 40°51' E 029°17'0 0.0
2016-Nov-28 21:28N 40°51' E 029°17'0 0.0
2016-Nov-28 20:28N 40°51' E 029°17'0 0.0
2016-Nov-28 19:28N 40°51' E 029°17'0 0.0
2016-Nov-28 18:28N 40°51' E 029°17'0 0.0
2016-Nov-28 17:28N 40°51' E 029°17'0 0.0
2016-Nov-28 16:28N 40°51' E 029°17'0 0.0
2016-Nov-28 15:28N 40°51' E 029°17'0 0.0
2016-Nov-28 14:28N 40°51' E 029°17'0 0.0
2016-Nov-28 13:28N 40°51' E 029°17'0 0.0
2016-Nov-28 12:16N 40°51' E 029°17'0 0.0
2016-Nov-28 11:28N 40°51' E 029°17'0 0.0
2016-Nov-28 10:28N 40°51' E 029°17'0 0.0
2016-Nov-28 09:28N 40°51' E 029°17'0 0.0
2016-Nov-28 08:28N 40°51' E 029°17'0 0.0
2016-Nov-28 07:28N 40°51' E 029°17'0 0.0
2016-Nov-28 06:28N 40°51' E 029°17'0 0.0
2016-Nov-28 05:28N 40°51' E 029°17'0 0.0
2016-Nov-28 04:22N 40°51' E 029°17'0 0.0
2016-Nov-28 03:28N 40°51' E 029°17'0 0.0
2016-Nov-28 02:22N 40°51' E 029°17'0 0.0
2016-Nov-28 01:28N 40°51' E 029°17'0 0.0
2016-Nov-28 00:28N 40°51' E 029°17'0 0.0
2016-Nov-27 23:28N 40°51' E 029°17'0 0.0
2016-Nov-27 22:28N 40°51' E 029°17'0 0.0
2016-Nov-27 21:28N 40°51' E 029°17'0 0.0
2016-Nov-27 20:16N 40°51' E 029°17'0 0.0
2016-Nov-27 19:22N 40°51' E 029°17'0 0.0
2016-Nov-26 18:28N 40°51' E 029°17'0 0.0
2016-Nov-26 17:22N 40°51' E 029°17'0 0.0
2016-Nov-26 16:28N 40°51' E 029°17'0 0.0
2016-Nov-26 15:22N 40°51' E 029°17'  
Track history (hours):
 
Tides and Currents Weather Stations Pressure Air Temp Water Temp Dewpoint Dewpoint Depression Visibility Wind Speed Wind Dir Waves Ship Positions

Gulf-ii

Last reported at 2016-Dec-03 07:29 UTC. Time now 2016-Dec-08 09:57 UTC.
Position N 40°51' E 029°17'.

Length 24 m; draft 3.8 m.

Type: Tug. MMSI: 271002438.

Date/timePositionNaut miles runAvg speedWind from/ knotsBaromVisibWave heightAir tempDewpointWater temp
2016-Dec-03 07:29N 40°51' E 029°17'0 0.0
2016-Dec-02 18:17N 40°51' E 029°17'0 0.0
2016-Dec-02 17:29N 40°51' E 029°17'0 0.0
2016-Dec-02 16:23N 40°51' E 029°17'0 0.0
2016-Dec-02 15:23N 40°51' E 029°17'0 0.0
2016-Dec-02 14:29N 40°51' E 029°17'0 0.0
2016-Dec-02 13:29N 40°51' E 029°17'0 0.0
2016-Dec-02 12:29N 40°51' E 029°17'0 0.0
2016-Dec-02 10:23N 40°51' E 029°17'0 0.0
2016-Dec-02 09:23N 40°51' E 029°17'0 0.0
2016-Dec-02 08:29N 40°51' E 029°17'0 0.0
2016-Dec-02 07:29N 40°51' E 029°17'0 0.0
2016-Dec-02 06:29N 40°51' E 029°17'0 0.0
2016-Dec-02 05:29N 40°51' E 029°17'0 0.0
2016-Dec-02 04:29N 40°51' E 029°17'0 0.0
2016-Dec-02 03:29N 40°51' E 029°17'0 0.0
2016-Dec-02 02:29N 40°51' E 029°17'0 0.0
2016-Dec-02 01:29N 40°51' E 029°17'0 0.0
2016-Dec-02 00:29N 40°51' E 029°17'0 0.0
2016-Dec-01 23:29N 40°51' E 029°17'0 0.0
2016-Dec-01 22:29N 40°51' E 029°17'0 0.0
2016-Dec-01 21:29N 40°51' E 029°17'0 0.0
2016-Dec-01 20:23N 40°51' E 029°17'0 0.0
2016-Dec-01 19:11N 40°51' E 029°17'0 0.0
2016-Dec-01 18:29N 40°51' E 029°17'0 0.0
2016-Dec-01 17:17N 40°51' E 029°17'0 0.0
2016-Dec-01 16:23N 40°51' E 029°17'0 0.0
2016-Dec-01 15:29N 40°51' E 029°17'0 0.3
2016-Dec-01 14:33N 40°51' E 029°17'5 4.8
2016-Dec-01 13:33N 40°46' E 029°16'8 6.6
2016-Dec-01 12:16N 40°44' E 029°27'2 3.2
2016-Dec-01 11:33N 40°44' E 029°30'1 1.1
2016-Dec-01 10:33N 40°45' E 029°31'1 0.0
2016-Nov-30 05:30N 40°45' E 029°29'6 6.8
2016-Nov-30 04:33N 40°45' E 029°20'6 6.2
2016-Nov-30 03:33N 40°49' E 029°15'3 2.6
2016-Nov-30 02:30N 40°51' E 029°17'0 0.0
2016-Nov-30 01:18N 40°51' E 029°17'0 0.0
2016-Nov-30 00:30N 40°51' E 029°17'0 0.0
2016-Nov-29 23:24N 40°51' E 029°17'0 0.0
2016-Nov-29 22:24N 40°51' E 029°17'0 0.0
2016-Nov-29 21:30N 40°51' E 029°17'0 0.0
2016-Nov-29 20:30N 40°51' E 029°17'0 0.0
2016-Nov-29 19:30N 40°51' E 029°17'0 0.0
2016-Nov-29 18:30N 40°51' E 029°17'0 0.0
2016-Nov-29 17:30N 40°51' E 029°17'0 0.0
2016-Nov-29 16:30N 40°51' E 029°17'0 0.0
2016-Nov-29 15:30N 40°51' E 029°17'0 0.0
2016-Nov-29 14:30N 40°51' E 029°17'0 0.0
2016-Nov-29 13:24N 40°51' E 029°17'0 0.0
2016-Nov-29 12:33N 40°51' E 029°17'0 0.1
2016-Nov-29 11:29N 40°51' E 029°17'0 0.1
2016-Nov-29 10:28N 40°51' E 029°17'0 0.0
2016-Nov-29 09:22N 40°51' E 029°17'0 0.0
2016-Nov-29 08:16N 40°51' E 029°17'0 0.0
2016-Nov-29 07:28N 40°51' E 029°17'0 0.0
2016-Nov-29 06:22N 40°51' E 029°17'0 0.0
2016-Nov-29 05:28N 40°51' E 029°17'0 0.0
2016-Nov-29 04:28N 40°51' E 029°17'0 0.0
2016-Nov-29 03:28N 40°51' E 029°17'0 0.0
2016-Nov-29 02:28N 40°51' E 029°17'0 0.0
2016-Nov-29 01:28N 40°51' E 029°17'0 0.0
2016-Nov-29 00:22N 40°51' E 029°17'0 0.0
2016-Nov-28 23:28N 40°51' E 029°17'0 0.0
2016-Nov-28 22:28N 40°51' E 029°17'0 0.0
2016-Nov-28 21:28N 40°51' E 029°17'0 0.0
2016-Nov-28 20:28N 40°51' E 029°17'0 0.0
2016-Nov-28 19:28N 40°51' E 029°17'0 0.0
2016-Nov-28 18:28N 40°51' E 029°17'0 0.0
2016-Nov-28 17:28N 40°51' E 029°17'0 0.0
2016-Nov-28 16:28N 40°51' E 029°17'0 0.0
2016-Nov-28 15:28N 40°51' E 029°17'0 0.0
2016-Nov-28 14:28N 40°51' E 029°17'0 0.0
2016-Nov-28 13:28N 40°51' E 029°17'0 0.0
2016-Nov-28 12:16N 40°51' E 029°17'0 0.0
2016-Nov-28 11:28N 40°51' E 029°17'0 0.0
2016-Nov-28 10:28N 40°51' E 029°17'0 0.0
2016-Nov-28 09:28N 40°51' E 029°17'0 0.0
2016-Nov-28 08:28N 40°51' E 029°17'0 0.0
2016-Nov-28 07:28N 40°51' E 029°17'0 0.0
2016-Nov-28 06:28N 40°51' E 029°17'0 0.0
2016-Nov-28 05:28N 40°51' E 029°17'0 0.0
2016-Nov-28 04:22N 40°51' E 029°17'0 0.0
2016-Nov-28 03:28N 40°51' E 029°17'0 0.0
2016-Nov-28 02:22N 40°51' E 029°17'0 0.0
2016-Nov-28 01:28N 40°51' E 029°17'0 0.0
2016-Nov-28 00:28N 40°51' E 029°17'0 0.0
2016-Nov-27 23:28N 40°51' E 029°17'0 0.0
2016-Nov-27 22:28N 40°51' E 029°17'0 0.0
2016-Nov-27 21:28N 40°51' E 029°17'0 0.0
2016-Nov-27 20:16N 40°51' E 029°17'0 0.0
2016-Nov-27 19:22N 40°51' E 029°17'0 0.0
2016-Nov-26 18:28N 40°51' E 029°17'0 0.0
2016-Nov-26 17:22N 40°51' E 029°17'0 0.0
2016-Nov-26 16:28N 40°51' E 029°17'0 0.0
2016-Nov-26 15:22N 40°51' E 029°17'  

Dump ship's entire track history